logo
Rechercher aéroport 
image banner adimage banner adimage banner ad
image banner ad

HADR - Dire Dawa Int'l

Situé à Dire Dawa, Ethiopia

ICAO - HADR, IATA - DIR

Données fournies par Airmate  

Information générale

Coordonnées: N9°38'16" E41°50'56"
Élévation : 3792 feet MSL.
 
Voir autres Aéroports à Dire Dawa

Données opérationnelles

Special qualification required
Heure actuelle UTC:
Heure actuelle locale:
Météo
TAF: TAF HADR 151530Z 1516/1622 34010KT 9999 BKN030 TEMPO 1601/1604 22010KT 6000 -TSRA BKN030
Voir NOTAMs / SUP AIP / TFR affectant cet aéroport [VIEW]
Fréquences de communication: [VIEW]

Pistes:

Identifiant RWYQFULongueur (ft)Largeur (ft)SurfaceLDA (ft)
15151°8858150ASP
33331°8858150ASP

Coordonnées de l'aéroport

Adresse: Dire Dawa Ethiopia

Vue satellite de HADR